O'Brien, Texas
Current Conditions -  °F | °C
As of 1:58 AM on Wednesday 22 Oct 2014 (Local Time) from KDYS Reporting Station
Broken Clouds Broken Clouds  
Wind Chill: 63°   Ceiling: 22000
Heat Index: 63°   Visibility: 10mi
Dew Point: 50°   Wind: 9mph
Humidity: 62%   Direction: 160°SSE
Pressure: 30.06"   Gusts: NA
Location:  33.38°N, 99.84°W
Report Text: KDYS 220658Z AUTO 16008KT 10SM BKN220 17/10 A3006 RMK AO2 SLP144 T01720099
Loading
Personal Weather Stations






























Interactive Weather Map
Tropical Storm Tracking
New forecast layout! Learn more

10-Day Weather Forecast

Advertisements
Track Severe Weather on mobile